4NK3 weather

Evans Airways Airport
Evans, New York, United States

Public forecast

Using degrees Fahrenheit for public forecast. Weather courtesy of forecast.io.

Closest aviation weather report (METAR) to Evans Airways Airport

Closest report is Chautauqua County-Dunkirk Airport, 17.2 nm (31.9 km) SW. Retrieved 2019/10/23 23:53 UTC (40 minutes ago):

KDKK 232353Z AUTO 20007KT 10SM CLR 11/02 A3006 RMK AO2 SLP182 60000 T01060022 10133 20106 53013

Closest aviation forecast (TAF) to Evans Airways Airport

Closest forecast is Buffalo Niagara International Airport, 19.1 nm (35.4 km) NNE. Retrieved 2019-10-24 00:28 UTC (5 minutes ago):

TAF KBUF 232326Z 2400/2424 24018G24KT P6SM BKN045 BKN060 FM241000 21013KT P6SM SCT150 WS020/23040KT FM241300 22014KT P6SM BKN080 FM241900 25013G27KT P6SM BKN040 FM242200 27007KT P6SM SCT045